This is the latest recevied weather packets stored in our database for station/object HB9BTL-13. If no packets are shown the sender has not sent any weather packets the latest 10 day(s).
| Time | Temp. | Humidity | Pressure | Rain* | Wind** | Luminosity | Snow |
|---|---|---|---|---|---|---|---|
| 1787597644 | 23.89° C | 56% | 1012.2 hPa | - | - | - | - |
| 1787596739 | 23.89° C | 57% | 1012.1 hPa | - | - | - | - |
| 1787595833 | 24.44° C | 54% | 1012.1 hPa | - | - | - | - |
| 1787594928 | 25° C | 53% | 1012.2 hPa | - | - | - | - |
| 1787594022 | 25° C | 55% | 1012.3 hPa | - | - | - | - |
| 1787593117 | 25° C | 56% | 1012.5 hPa | - | - | - | - |
| 1787592211 | 25° C | 54% | 1012.3 hPa | - | - | - | - |
| 1787591306 | 25.56° C | 54% | 1012.3 hPa | - | - | - | - |
| 1787590401 | 25.56° C | 51% | 1012.3 hPa | - | - | - | - |
| 1787589495 | 26.11° C | 50% | 1012.4 hPa | - | - | - | - |
| 1787588590 | 26.67° C | 49% | 1012.8 hPa | - | - | - | - |
| 1787587684 | 27.22° C | 48% | 1013 hPa | - | - | - | - |
| 1787586779 | 27.78° C | 46% | 1013.5 hPa | - | - | - | - |
| 1787585873 | 26.11° C | 52% | 1013.7 hPa | - | - | - | - |
| 1787584969 | 26.11° C | 53% | 1014 hPa | - | - | - | - |
| 1787584063 | 25° C | 54% | 1014.4 hPa | - | - | - | - |
| 1787583158 | 25° C | 55% | 1014.6 hPa | - | - | - | - |
| 1787582252 | 25° C | 55% | 1014.7 hPa | - | - | - | - |
| 1787581347 | 25° C | 55% | 1014.9 hPa | - | - | - | - |
| 1787580442 | 25° C | 56% | 1015.2 hPa | - | - | - | - |
| 1787579536 | 24.44° C | 55% | 1015.5 hPa | - | - | - | - |
| 1787578631 | 25° C | 54% | 1015.6 hPa | - | - | - | - |
| 1787577725 | 25° C | 56% | 1016 hPa | - | - | - | - |
| 1787576820 | 25.56° C | 53% | 1015.9 hPa | - | - | - | - |
| 1787575914 | 25.56° C | 53% | 1016.2 hPa | - | - | - | - |
* Rain since midnight (hover to see other rain measurements)
** Current wind speed in m/s (hover to see current wind gust speed)